createdAt,value
2022-10-09T00:00:40.380Z,1011.97
2022-10-09T00:01:25.189Z,1011.99
2022-10-09T00:02:40.247Z,1011.93
2022-10-09T00:03:25.914Z,1011.94
2022-10-09T00:04:25.942Z,1011.95
2022-10-09T00:05:28.006Z,1011.91
2022-10-09T00:06:27.898Z,1011.96
2022-10-09T00:07:25.142Z,1011.96
2022-10-09T00:08:25.099Z,1011.92
2022-10-09T00:09:24.866Z,1011.90
2022-10-09T00:10:27.871Z,1011.94
2022-10-09T00:11:25.063Z,1011.90
2022-10-09T00:12:24.864Z,1011.95
2022-10-09T00:13:32.215Z,1011.97
2022-10-09T00:14:27.819Z,1011.95
2022-10-09T00:15:26.040Z,1011.93
2022-10-09T00:16:40.209Z,1011.94
2022-10-09T00:17:25.028Z,1011.91
2022-10-09T00:18:25.007Z,1011.88
2022-10-09T00:19:24.985Z,1011.89
2022-10-09T00:20:24.753Z,1011.97
2022-10-09T00:21:24.967Z,1011.92
2022-10-09T00:22:24.985Z,1011.93
2022-10-09T00:23:24.705Z,1011.93
2022-10-09T00:24:25.721Z,1011.91
2022-10-09T00:25:40.266Z,1011.91
2022-10-09T00:26:24.657Z,1011.89
2022-10-09T00:27:24.943Z,1011.89
2022-10-09T00:28:24.734Z,1011.90
2022-10-09T00:29:24.870Z,1011.89
2022-10-09T00:30:24.619Z,1011.91
2022-10-09T00:31:25.913Z,1011.93
2022-10-09T00:32:24.860Z,1011.90
2022-10-09T00:33:24.602Z,1011.88
2022-10-09T00:34:24.588Z,1011.90
2022-10-09T00:35:31.651Z,1011.91
2022-10-09T00:36:24.822Z,1011.89
2022-10-09T00:37:27.595Z,1011.90
2022-10-09T00:38:24.820Z,1011.88
2022-10-09T00:39:25.563Z,1011.90
2022-10-09T00:40:24.520Z,1011.90
2022-10-09T00:41:25.770Z,1011.90
2022-10-09T00:42:31.966Z,1011.88
2022-10-09T00:43:24.724Z,1011.86
2022-10-09T00:44:24.515Z,1011.88
2022-10-09T00:45:24.472Z,1011.88
2022-10-09T00:46:24.478Z,1011.87
2022-10-09T00:47:24.448Z,1011.86
2022-10-09T00:48:31.683Z,1011.87
2022-10-09T00:49:24.457Z,1011.87
2022-10-09T00:50:24.404Z,1011.86
2022-10-09T00:51:27.691Z,1011.85
2022-10-09T00:52:25.421Z,1011.85
2022-10-09T00:53:27.706Z,1011.86
2022-10-09T00:54:24.632Z,1011.82
2022-10-09T00:55:27.445Z,1011.85
2022-10-09T00:56:25.601Z,1011.82
2022-10-09T00:57:25.377Z,1011.85
2022-10-09T00:58:25.375Z,1011.88
2022-10-09T00:59:24.591Z,1011.94
2022-10-09T01:00:27.365Z,1011.87
2022-10-09T01:01:27.718Z,1011.92
2022-10-09T01:02:24.349Z,1011.91
2022-10-09T01:03:24.524Z,1011.85
2022-10-09T01:04:24.299Z,1011.87
2022-10-09T01:05:24.518Z,1011.82
2022-10-09T01:06:27.303Z,1011.83
2022-10-09T01:07:25.291Z,1011.83
2022-10-09T01:08:25.474Z,1011.81
2022-10-09T01:09:24.471Z,1011.77
2022-10-09T01:10:24.247Z,1011.75
2022-10-09T01:11:31.269Z,1011.77
2022-10-09T01:12:39.610Z,1011.77
2022-10-09T01:13:24.414Z,1011.75
2022-10-09T01:14:24.414Z,1011.77
2022-10-09T01:15:25.261Z,1011.78
2022-10-09T01:16:24.464Z,1011.79
2022-10-09T01:17:24.390Z,1011.79
2022-10-09T01:18:24.378Z,1011.77
2022-10-09T01:19:31.258Z,1011.78
2022-10-09T01:20:24.428Z,1011.77
2022-10-09T01:21:24.340Z,1011.73
2022-10-09T01:22:24.108Z,1011.73
2022-10-09T01:23:25.360Z,1011.72
2022-10-09T01:24:24.065Z,1011.65
2022-10-09T01:25:24.111Z,1011.69
2022-10-09T01:26:25.073Z,1011.67
2022-10-09T01:27:24.317Z,1011.67
2022-10-09T01:28:27.104Z,1011.64
2022-10-09T01:29:24.288Z,1011.61
2022-10-09T01:30:25.050Z,1011.61
2022-10-09T01:31:24.331Z,1011.57
2022-10-09T01:32:23.993Z,1011.59
2022-10-09T01:33:24.056Z,1011.58
2022-10-09T01:34:25.209Z,1011.60
2022-10-09T01:35:31.270Z,1011.60
2022-10-09T01:36:24.993Z,1011.55
2022-10-09T01:37:24.211Z,1011.55
2022-10-09T01:38:24.189Z,1011.59
2022-10-09T01:39:24.972Z,1011.57
2022-10-09T01:40:23.915Z,1011.54
2022-10-09T01:41:24.153Z,1011.54
2022-10-09T01:42:23.911Z,1011.59
2022-10-09T01:43:23.934Z,1011.56
2022-10-09T01:44:24.106Z,1011.54
2022-10-09T01:45:23.879Z,1011.61
2022-10-09T01:46:23.910Z,1011.56
2022-10-09T01:47:23.842Z,1011.57
2022-10-09T01:48:24.096Z,1011.52
2022-10-09T01:49:24.062Z,1011.51
2022-10-09T01:50:23.821Z,1011.46
2022-10-09T01:51:23.821Z,1011.46
2022-10-09T01:52:24.041Z,1011.50
2022-10-09T01:53:25.075Z,1011.50
2022-10-09T01:54:23.788Z,1011.54
2022-10-09T01:55:25.017Z,1011.50
2022-10-09T01:56:26.774Z,1011.52
2022-10-09T01:57:25.001Z,1011.52
2022-10-09T01:58:23.987Z,1011.45
2022-10-09T01:59:23.714Z,1011.52
2022-10-09T02:00:23.728Z,1011.48
2022-10-09T02:01:23.956Z,1011.40
2022-10-09T02:02:23.790Z,1011.50
2022-10-09T02:03:23.707Z,1011.47
2022-10-09T02:04:23.665Z,1011.48
2022-10-09T02:05:24.961Z,1011.52
2022-10-09T02:06:26.666Z,1011.49
2022-10-09T02:07:23.891Z,1011.42
2022-10-09T02:08:23.874Z,1011.48
2022-10-09T02:09:23.862Z,1011.46
2022-10-09T02:10:23.858Z,1011.35
2022-10-09T02:11:26.866Z,1011.35
2022-10-09T02:12:23.574Z,1011.38
2022-10-09T02:13:23.613Z,1011.34
2022-10-09T02:14:23.551Z,1011.33
2022-10-09T02:15:26.673Z,1011.29
2022-10-09T02:16:24.609Z,1011.33
2022-10-09T02:17:24.780Z,1011.28
2022-10-09T02:18:24.011Z,1011.30
2022-10-09T02:19:23.526Z,1011.28
2022-10-09T02:20:23.493Z,1011.34
2022-10-09T02:21:23.746Z,1011.36
2022-10-09T02:22:24.506Z,1011.37
2022-10-09T02:23:44.470Z,1011.41
2022-10-09T02:24:23.484Z,1011.40
2022-10-09T02:25:24.477Z,1011.39
2022-10-09T02:26:23.465Z,1011.42
2022-10-09T02:27:23.678Z,1011.36
2022-10-09T02:28:41.444Z,1011.40
2022-10-09T02:29:24.660Z,1011.41
2022-10-09T02:30:24.454Z,1011.42
2022-10-09T02:31:24.700Z,1011.38
2022-10-09T02:32:24.716Z,1011.45
2022-10-09T02:33:24.622Z,1011.39
2022-10-09T02:34:23.389Z,1011.44
2022-10-09T02:35:23.579Z,1011.42
2022-10-09T02:36:23.369Z,1011.43
2022-10-09T02:37:23.324Z,1011.37
2022-10-09T02:38:23.335Z,1011.37
2022-10-09T02:39:23.552Z,1011.37
2022-10-09T02:40:30.638Z,1011.37
2022-10-09T02:41:23.292Z,1011.38
2022-10-09T02:42:30.698Z,1011.38
2022-10-09T02:43:23.275Z,1011.38
2022-10-09T02:44:23.292Z,1011.39
2022-10-09T02:45:23.522Z,1011.40
2022-10-09T02:46:23.600Z,1011.36
2022-10-09T02:47:23.239Z,1011.33
2022-10-09T02:48:24.485Z,1011.38
2022-10-09T02:49:38.728Z,1011.37
2022-10-09T02:50:24.216Z,1011.40
2022-10-09T02:51:23.429Z,1011.34
2022-10-09T02:52:23.206Z,1011.38
2022-10-09T02:53:26.470Z,1011.36
2022-10-09T02:54:23.155Z,1011.35
2022-10-09T02:55:23.157Z,1011.34
2022-10-09T02:56:23.169Z,1011.34
2022-10-09T02:57:24.380Z,1011.33
2022-10-09T02:58:23.132Z,1011.28
2022-10-09T02:59:23.128Z,1011.34
2022-10-09T03:00:23.104Z,1011.31
2022-10-09T03:01:23.409Z,1011.29
2022-10-09T03:02:23.186Z,1011.31
2022-10-09T03:03:24.313Z,1011.31
2022-10-09T03:04:23.072Z,1011.30
2022-10-09T03:05:23.318Z,1011.32
2022-10-09T03:06:23.309Z,1011.30
2022-10-09T03:07:23.261Z,1011.35
2022-10-09T03:08:23.025Z,1011.36
2022-10-09T03:09:23.026Z,1011.33
2022-10-09T03:10:26.049Z,1011.39
2022-10-09T03:11:30.240Z,1011.36
2022-10-09T03:12:23.013Z,1011.35
2022-10-09T03:13:26.052Z,1011.29
2022-10-09T03:14:23.184Z,1011.36
2022-10-09T03:15:23.268Z,1011.35
2022-10-09T03:16:38.196Z,1011.34
2022-10-09T03:17:22.949Z,1011.40
2022-10-09T03:18:26.209Z,1011.41
2022-10-09T03:19:23.134Z,1011.40
2022-10-09T03:20:23.216Z,1011.43
2022-10-09T03:21:23.128Z,1011.44
2022-10-09T03:22:22.878Z,1011.41
2022-10-09T03:23:23.167Z,1011.42
2022-10-09T03:24:24.098Z,1011.44
2022-10-09T03:25:23.096Z,1011.46
2022-10-09T03:26:22.829Z,1011.43
2022-10-09T03:27:23.824Z,1011.39
2022-10-09T03:28:23.169Z,1011.38
2022-10-09T03:29:22.814Z,1011.41
2022-10-09T03:30:23.043Z,1011.42
2022-10-09T03:32:23.836Z,1011.43
2022-10-09T03:33:22.994Z,1011.42
2022-10-09T03:34:23.002Z,1011.44
2022-10-09T03:35:22.982Z,1011.44
2022-10-09T03:36:22.746Z,1011.43
2022-10-09T03:37:22.707Z,1011.38
2022-10-09T03:38:29.920Z,1011.40
2022-10-09T03:39:22.962Z,1011.42
2022-10-09T03:40:22.934Z,1011.39
2022-10-09T03:41:22.928Z,1011.42
2022-10-09T03:42:22.912Z,1011.45
2022-10-09T03:43:22.879Z,1011.44
2022-10-09T03:44:22.694Z,1011.46
2022-10-09T03:45:30.018Z,1011.46
2022-10-09T03:46:25.730Z,1011.43
2022-10-09T03:47:22.650Z,1011.40
2022-10-09T03:48:25.857Z,1011.39
2022-10-09T03:49:22.836Z,1011.41
2022-10-09T03:50:22.610Z,1011.40
2022-10-09T03:51:22.620Z,1011.38
2022-10-09T03:52:23.870Z,1011.43
2022-10-09T03:53:22.569Z,1011.39
2022-10-09T03:54:22.554Z,1011.40
2022-10-09T03:55:22.553Z,1011.42
2022-10-09T03:56:22.529Z,1011.39
2022-10-09T03:57:25.789Z,1011.41
2022-10-09T03:58:22.726Z,1011.45
2022-10-09T03:59:22.764Z,1011.40
2022-10-09T04:00:22.564Z,1011.41
2022-10-09T04:01:22.774Z,1011.43
2022-10-09T04:02:23.576Z,1011.44
2022-10-09T04:03:22.450Z,1011.49
2022-10-09T04:04:22.462Z,1011.50
2022-10-09T04:05:29.835Z,1011.47
2022-10-09T04:06:22.714Z,1011.52
2022-10-09T04:07:22.625Z,1011.51
2022-10-09T04:08:23.436Z,1011.52
2022-10-09T04:09:22.628Z,1011.47
2022-10-09T04:10:22.616Z,1011.50
2022-10-09T04:11:25.440Z,1011.51
2022-10-09T04:12:22.377Z,1011.49
2022-10-09T04:13:22.362Z,1011.49
2022-10-09T04:14:23.362Z,1011.51
2022-10-09T04:15:22.589Z,1011.52
2022-10-09T04:16:22.371Z,1011.52
2022-10-09T04:17:22.321Z,1011.50
2022-10-09T04:18:22.364Z,1011.56
2022-10-09T04:19:22.540Z,1011.57
2022-10-09T04:20:23.534Z,1011.58
2022-10-09T04:21:22.291Z,1011.58
2022-10-09T04:22:25.311Z,1011.60
2022-10-09T04:23:22.554Z,1011.61
2022-10-09T04:24:25.497Z,1011.57
2022-10-09T04:25:29.476Z,1011.58
2022-10-09T04:26:22.302Z,1011.54
2022-10-09T04:27:23.224Z,1011.51
2022-10-09T04:28:25.300Z,1011.54
2022-10-09T04:29:22.461Z,1011.51
2022-10-09T04:30:22.408Z,1011.50
2022-10-09T04:31:22.234Z,1011.54
2022-10-09T04:32:22.396Z,1011.53
2022-10-09T04:33:25.200Z,1011.51
2022-10-09T04:34:22.131Z,1011.48
2022-10-09T04:35:22.173Z,1011.52
2022-10-09T04:36:22.134Z,1011.53
2022-10-09T04:37:22.361Z,1011.56
2022-10-09T04:38:22.080Z,1011.53
2022-10-09T04:39:22.107Z,1011.55
2022-10-09T04:40:22.334Z,1011.52
2022-10-09T04:41:22.071Z,1011.50
2022-10-09T04:42:22.057Z,1011.50
2022-10-09T04:43:25.064Z,1011.51
2022-10-09T04:44:22.019Z,1011.50
2022-10-09T04:45:22.071Z,1011.49
2022-10-09T04:46:25.021Z,1011.51
2022-10-09T04:47:22.244Z,1011.47
2022-10-09T04:48:23.236Z,1011.50
2022-10-09T04:49:23.001Z,1011.42
2022-10-09T04:50:23.223Z,1011.47
2022-10-09T04:51:22.203Z,1011.48
2022-10-09T04:52:22.218Z,1011.39
2022-10-09T04:53:21.953Z,1011.42
2022-10-09T04:54:22.155Z,1011.45
2022-10-09T04:55:21.919Z,1011.42
2022-10-09T04:56:21.955Z,1011.40
2022-10-09T04:57:22.933Z,1011.37
2022-10-09T04:58:29.318Z,1011.39
2022-10-09T04:59:23.149Z,1011.36
2022-10-09T05:00:23.136Z,1011.36
2022-10-09T05:01:21.943Z,1011.36
2022-10-09T05:02:21.901Z,1011.38
2022-10-09T05:03:22.103Z,1011.38
2022-10-09T05:04:21.836Z,1011.35
2022-10-09T05:05:22.836Z,1011.35
2022-10-09T05:06:29.308Z,1011.34
2022-10-09T05:07:22.049Z,1011.34
2022-10-09T05:08:25.053Z,1011.37
2022-10-09T05:09:24.817Z,1011.36
2022-10-09T05:10:22.007Z,1011.33
2022-10-09T05:11:21.987Z,1011.37
2022-10-09T05:12:22.016Z,1011.34
2022-10-09T05:13:24.776Z,1011.38
2022-10-09T05:14:21.726Z,1011.38
2022-10-09T05:15:21.704Z,1011.36
2022-10-09T05:16:21.789Z,1011.40
2022-10-09T05:17:23.453Z,1011.37
2022-10-09T05:18:24.936Z,1011.37
2022-10-09T05:19:24.718Z,1011.36
2022-10-09T05:20:22.690Z,1011.38
2022-10-09T05:21:22.725Z,1011.35
2022-10-09T05:22:21.678Z,1011.35
2022-10-09T05:23:22.658Z,1011.38
2022-10-09T05:24:22.661Z,1011.36
2022-10-09T05:25:21.836Z,1011.33
2022-10-09T05:26:21.600Z,1011.33
2022-10-09T05:27:21.600Z,1011.33
2022-10-09T05:28:21.920Z,1011.31
2022-10-09T05:29:21.809Z,1011.31
2022-10-09T05:30:21.789Z,1011.32
2022-10-09T05:31:21.614Z,1011.33
2022-10-09T05:32:21.608Z,1011.33
2022-10-09T05:33:21.569Z,1011.34
2022-10-09T05:34:21.521Z,1011.32
2022-10-09T05:35:21.508Z,1011.33
2022-10-09T05:36:24.527Z,1011.33
2022-10-09T05:37:24.788Z,1011.33
2022-10-09T05:38:21.511Z,1011.31
2022-10-09T05:39:21.461Z,1011.32
2022-10-09T05:40:23.647Z,1011.35
2022-10-09T05:41:23.478Z,1011.33
2022-10-09T05:42:21.657Z,1011.35
2022-10-09T05:43:21.673Z,1011.35
2022-10-09T05:44:21.472Z,1011.32
2022-10-09T05:45:24.658Z,1011.30
2022-10-09T05:46:21.409Z,1011.34
2022-10-09T05:47:24.476Z,1011.32
2022-10-09T05:48:24.610Z,1011.34
2022-10-09T05:49:21.591Z,1011.32
2022-10-09T05:50:21.612Z,1011.31
2022-10-09T05:51:21.357Z,1011.32
2022-10-09T05:52:21.568Z,1011.32
2022-10-09T05:53:21.578Z,1011.39
2022-10-09T05:54:22.332Z,1011.40
2022-10-09T05:55:21.569Z,1011.38
2022-10-09T05:56:21.522Z,1011.32
2022-10-09T05:57:22.773Z,1011.41
2022-10-09T05:58:22.772Z,1011.39
2022-10-09T05:59:21.549Z,1011.43
2022-10-09T06:00:21.499Z,1011.40
2022-10-09T06:01:21.294Z,1011.45
2022-10-09T06:02:21.518Z,1011.47
2022-10-09T06:03:21.472Z,1011.47
2022-10-09T06:04:21.229Z,1011.47
2022-10-09T06:05:21.231Z,1011.41
2022-10-09T06:06:21.221Z,1011.42
2022-10-09T06:07:21.424Z,1011.38
2022-10-09T06:08:22.190Z,1011.37
2022-10-09T06:09:21.177Z,1011.33
2022-10-09T06:10:21.383Z,1011.35
2022-10-09T06:11:21.217Z,1011.36
2022-10-09T06:12:21.151Z,1011.37
2022-10-09T06:13:21.362Z,1011.36
2022-10-09T06:14:22.426Z,1011.36
2022-10-09T06:15:21.121Z,1011.38
2022-10-09T06:16:21.127Z,1011.36
2022-10-09T06:17:21.105Z,1011.39
2022-10-09T06:18:21.097Z,1011.35
2022-10-09T06:19:24.114Z,1011.37
2022-10-09T06:20:21.042Z,1011.39
2022-10-09T06:21:28.211Z,1011.41
2022-10-09T06:22:21.282Z,1011.43
2022-10-09T06:23:21.259Z,1011.48
2022-10-09T06:24:25.570Z,1011.45
2022-10-09T06:25:23.017Z,1011.42
2022-10-09T06:26:21.260Z,1011.49
2022-10-09T06:27:21.232Z,1011.42
2022-10-09T06:28:22.288Z,1011.43
2022-10-09T06:29:20.944Z,1011.44
2022-10-09T06:30:20.964Z,1011.42
2022-10-09T06:31:21.005Z,1011.45
2022-10-09T06:32:20.945Z,1011.42
2022-10-09T06:33:23.985Z,1011.41
2022-10-09T06:34:27.967Z,1011.43
2022-10-09T06:35:23.940Z,1011.41
2022-10-09T06:36:21.124Z,1011.44
2022-10-09T06:37:23.908Z,1011.49
2022-10-09T06:38:21.113Z,1011.47
2022-10-09T06:39:21.088Z,1011.55
2022-10-09T06:40:20.858Z,1011.49
2022-10-09T06:41:28.067Z,1011.51
2022-10-09T06:42:22.078Z,1011.50
2022-10-09T06:43:20.817Z,1011.50
2022-10-09T06:44:20.865Z,1011.53
2022-10-09T06:45:20.825Z,1011.55
2022-10-09T06:46:24.124Z,1011.52
2022-10-09T06:47:23.801Z,1011.56
2022-10-09T06:48:21.806Z,1011.57
2022-10-09T06:49:20.778Z,1011.57
2022-10-09T06:50:23.802Z,1011.55
2022-10-09T06:51:20.737Z,1011.59
2022-10-09T06:52:20.977Z,1011.59
2022-10-09T06:53:20.949Z,1011.57
2022-10-09T06:54:20.729Z,1011.60
2022-10-09T06:55:23.207Z,1011.60
2022-10-09T06:56:22.718Z,1011.60
2022-10-09T06:57:27.835Z,1011.65
2022-10-09T06:58:20.735Z,1011.65
2022-10-09T06:59:20.911Z,1011.66
2022-10-09T07:00:21.887Z,1011.66
2022-10-09T07:01:20.905Z,1011.67
2022-10-09T07:02:21.703Z,1011.66
2022-10-09T07:03:20.848Z,1011.65
2022-10-09T07:04:20.868Z,1011.70
2022-10-09T07:05:20.823Z,1011.66
2022-10-09T07:06:21.832Z,1011.65
2022-10-09T07:07:28.021Z,1011.67
2022-10-09T07:08:20.585Z,1011.67
2022-10-09T07:09:20.602Z,1011.67
2022-10-09T07:10:25.123Z,1011.68
2022-10-09T07:11:21.551Z,1011.71
2022-10-09T07:12:21.766Z,1011.68
2022-10-09T07:13:21.828Z,1011.69
2022-10-09T07:14:20.766Z,1011.70
2022-10-09T07:15:20.508Z,1011.71
2022-10-09T07:16:21.787Z,1011.73
2022-10-09T07:17:20.745Z,1011.73
2022-10-09T07:18:20.470Z,1011.73
2022-10-09T07:19:20.484Z,1011.75
2022-10-09T07:20:20.693Z,1011.69
2022-10-09T07:21:20.450Z,1011.69
2022-10-09T07:22:26.874Z,1011.67
2022-10-09T07:23:20.638Z,1011.66
2022-10-09T07:24:20.466Z,1011.63
2022-10-09T07:25:20.400Z,1011.60
2022-10-09T07:26:20.379Z,1011.62
2022-10-09T07:27:20.453Z,1011.61
2022-10-09T07:28:41.434Z,1011.60
2022-10-09T07:29:21.372Z,1011.59
2022-10-09T07:30:20.597Z,1011.62
2022-10-09T07:31:20.396Z,1011.57
2022-10-09T07:32:23.385Z,1011.61
2022-10-09T07:33:27.571Z,1011.61
2022-10-09T07:34:20.552Z,1011.62
2022-10-09T07:35:20.562Z,1011.58
2022-10-09T07:36:20.351Z,1011.59
2022-10-09T07:37:21.259Z,1011.58
2022-10-09T07:38:21.547Z,1011.55
2022-10-09T07:39:20.496Z,1011.56
2022-10-09T07:40:23.518Z,1011.57
2022-10-09T07:41:20.295Z,1011.56
2022-10-09T07:42:20.212Z,1011.59
2022-10-09T07:43:23.245Z,1011.52
2022-10-09T07:44:21.264Z,1011.58
2022-10-09T07:45:21.453Z,1011.52
2022-10-09T07:46:20.457Z,1011.54
2022-10-09T07:47:23.206Z,1011.52
2022-10-09T07:48:20.156Z,1011.49
2022-10-09T07:49:20.380Z,1011.48
2022-10-09T07:50:20.160Z,1011.44
2022-10-09T07:51:20.379Z,1011.44
2022-10-09T07:52:20.115Z,1011.44
2022-10-09T07:53:20.371Z,1011.48
2022-10-09T07:54:20.315Z,1011.50
2022-10-09T07:55:20.085Z,1011.46
2022-10-09T07:56:23.117Z,1011.46
2022-10-09T07:57:20.111Z,1011.46
2022-10-09T07:58:20.066Z,1011.44
2022-10-09T07:59:20.277Z,1011.45
2022-10-09T08:00:20.317Z,1011.43
2022-10-09T08:01:20.648Z,1011.43
2022-10-09T08:02:20.107Z,1011.42
2022-10-09T08:03:19.994Z,1011.45
2022-10-09T08:04:20.020Z,1011.37
2022-10-09T08:05:19.989Z,1011.42
2022-10-09T08:06:20.057Z,1011.39
2022-10-09T08:07:19.977Z,1011.39
2022-10-09T08:08:20.176Z,1011.42
2022-10-09T08:09:19.936Z,1011.39
2022-10-09T08:10:19.976Z,1011.34
2022-10-09T08:11:20.144Z,1011.34
2022-10-09T08:12:20.162Z,1011.38
2022-10-09T08:13:19.932Z,1011.37
2022-10-09T08:14:20.135Z,1011.38
2022-10-09T08:15:19.877Z,1011.37
2022-10-09T08:16:19.995Z,1011.29
2022-10-09T08:17:19.905Z,1011.33
2022-10-09T08:18:19.872Z,1011.33
2022-10-09T08:19:20.897Z,1011.31
2022-10-09T08:20:19.827Z,1011.33
2022-10-09T08:21:22.915Z,1011.32
2022-10-09T08:22:35.417Z,1011.33
2022-10-09T08:23:19.840Z,1011.33
2022-10-09T08:24:21.030Z,1011.28
2022-10-09T08:25:20.023Z,1011.30
2022-10-09T08:26:19.822Z,1011.26
2022-10-09T08:27:19.779Z,1011.24
2022-10-09T08:28:19.847Z,1011.23
2022-10-09T08:29:21.008Z,1011.26
2022-10-09T08:30:19.983Z,1011.22
2022-10-09T08:31:19.782Z,1011.24
2022-10-09T08:32:19.718Z,1011.27
2022-10-09T08:33:19.687Z,1011.24
2022-10-09T08:34:19.765Z,1011.25
2022-10-09T08:35:19.690Z,1011.21
2022-10-09T08:36:20.871Z,1011.24
2022-10-09T08:37:19.661Z,1011.19
2022-10-09T08:38:44.927Z,1011.18
2022-10-09T08:39:20.649Z,1011.14
2022-10-09T08:40:19.635Z,1011.17
2022-10-09T08:41:19.652Z,1011.15
2022-10-09T08:42:19.614Z,1011.11
2022-10-09T08:43:22.625Z,1011.13
2022-10-09T08:44:19.878Z,1011.13
2022-10-09T08:45:19.631Z,1011.09
2022-10-09T08:46:22.628Z,1011.12
2022-10-09T08:47:19.784Z,1011.11
2022-10-09T08:48:19.812Z,1011.12
2022-10-09T08:49:19.778Z,1011.10
2022-10-09T08:50:19.796Z,1011.08
2022-10-09T08:51:19.747Z,1011.08
2022-10-09T08:52:22.761Z,1011.04
2022-10-09T08:53:19.513Z,1011.04
2022-10-09T08:54:19.505Z,1011.03
2022-10-09T08:55:19.483Z,1011.03
2022-10-09T08:56:20.464Z,1010.98
2022-10-09T08:57:22.557Z,1010.96
2022-10-09T08:58:20.463Z,1010.93
2022-10-09T08:59:19.433Z,1010.91
2022-10-09T09:00:19.451Z,1010.90
2022-10-09T09:01:22.542Z,1010.90
2022-10-09T09:02:19.668Z,1010.90
2022-10-09T09:03:19.649Z,1010.89
2022-10-09T09:04:19.613Z,1010.90
2022-10-09T09:05:19.639Z,1010.92
2022-10-09T09:06:19.356Z,1010.89
2022-10-09T09:07:20.588Z,1010.91
2022-10-09T09:08:22.397Z,1010.86
2022-10-09T09:09:20.598Z,1010.89
2022-10-09T09:10:22.385Z,1010.85
2022-10-09T09:11:21.785Z,1010.79
2022-10-09T09:12:20.390Z,1010.80
2022-10-09T09:13:20.295Z,1010.77
2022-10-09T09:14:20.341Z,1010.75
2022-10-09T09:15:19.270Z,1010.74
2022-10-09T09:16:20.599Z,1010.76
2022-10-09T09:17:19.507Z,1010.73
2022-10-09T09:18:19.228Z,1010.75
2022-10-09T09:19:19.239Z,1010.72
2022-10-09T09:20:19.442Z,1010.72
2022-10-09T09:21:19.453Z,1010.68
2022-10-09T09:22:19.460Z,1010.70
2022-10-09T09:23:19.200Z,1010.66
2022-10-09T09:24:19.177Z,1010.62
2022-10-09T09:25:19.165Z,1010.61
2022-10-09T09:26:19.164Z,1010.61
2022-10-09T09:27:19.221Z,1010.59
2022-10-09T09:28:19.233Z,1010.55
2022-10-09T09:29:19.372Z,1010.55
2022-10-09T09:30:20.147Z,1010.52
2022-10-09T09:31:19.245Z,1010.51
2022-10-09T09:32:19.099Z,1010.49
2022-10-09T09:33:19.357Z,1010.51
2022-10-09T09:34:19.304Z,1010.51
2022-10-09T09:35:20.312Z,1010.51
2022-10-09T09:36:22.134Z,1010.50
2022-10-09T09:37:19.068Z,1010.49
2022-10-09T09:38:19.035Z,1010.50
2022-10-09T09:40:15.645Z,1010.51
2022-10-09T09:40:37.273Z,1010.53
2022-10-09T09:41:20.011Z,1010.55
2022-10-09T09:42:19.019Z,1010.48
2022-10-09T09:43:19.014Z,1010.50
2022-10-09T09:44:18.969Z,1010.39
2022-10-09T09:45:22.279Z,1010.39
2022-10-09T09:46:19.290Z,1010.42
2022-10-09T09:47:19.198Z,1010.42
2022-10-09T09:48:19.193Z,1010.42
2022-10-09T09:49:19.198Z,1010.37
2022-10-09T09:50:45.699Z,1010.38
2022-10-09T09:51:28.659Z,1010.33
2022-10-09T09:52:19.899Z,1010.30
2022-10-09T09:53:19.158Z,1010.28
2022-10-09T09:54:18.878Z,1010.24
2022-10-09T09:55:19.118Z,1010.24
2022-10-09T09:56:26.105Z,1010.24
2022-10-09T09:57:21.954Z,1010.17
2022-10-09T09:58:18.873Z,1010.19
2022-10-09T09:59:20.064Z,1010.16
2022-10-09T10:00:18.845Z,1010.16
2022-10-09T10:01:19.131Z,1010.18
2022-10-09T10:02:19.132Z,1010.16
2022-10-09T10:03:19.857Z,1010.13
2022-10-09T10:04:19.053Z,1010.12
2022-10-09T10:05:18.751Z,1010.11
2022-10-09T10:06:18.772Z,1010.12
2022-10-09T10:07:18.744Z,1010.11
2022-10-09T10:08:18.763Z,1010.09
2022-10-09T10:09:18.976Z,1010.10
2022-10-09T10:10:22.652Z,1010.05
2022-10-09T10:11:19.692Z,1010.06
2022-10-09T10:12:18.929Z,1010.00
2022-10-09T10:13:18.955Z,1010.03
2022-10-09T10:14:18.896Z,1010.07
2022-10-09T10:15:18.698Z,1010.01
2022-10-09T10:16:18.673Z,1010.00
2022-10-09T10:17:18.647Z,1009.97
2022-10-09T10:18:18.685Z,1009.96
2022-10-09T10:19:18.863Z,1009.96
2022-10-09T10:20:18.658Z,1009.96
2022-10-09T10:21:18.675Z,1009.94
2022-10-09T10:22:18.643Z,1009.95
2022-10-09T10:23:18.827Z,1009.98
2022-10-09T10:24:18.799Z,1009.96
2022-10-09T10:25:18.578Z,1009.95
2022-10-09T10:26:18.879Z,1009.92
2022-10-09T10:27:18.790Z,1009.92
2022-10-09T10:28:18.571Z,1009.84
2022-10-09T10:29:18.529Z,1009.82
2022-10-09T10:30:18.558Z,1009.89
2022-10-09T10:31:18.542Z,1009.83
2022-10-09T10:32:18.729Z,1009.82
2022-10-09T10:33:18.499Z,1009.82
2022-10-09T10:34:18.681Z,1009.83
2022-10-09T10:35:18.690Z,1009.86
2022-10-09T10:36:18.715Z,1009.80
2022-10-09T10:37:18.463Z,1009.81
2022-10-09T10:38:18.451Z,1009.81
2022-10-09T10:39:18.409Z,1009.81
2022-10-09T10:40:18.484Z,1009.76
2022-10-09T10:41:18.390Z,1009.74
2022-10-09T10:42:18.398Z,1009.77
2022-10-09T10:43:18.628Z,1009.71
2022-10-09T10:44:18.591Z,1009.71
2022-10-09T10:45:18.394Z,1009.63
2022-10-09T10:46:18.420Z,1009.63
2022-10-09T10:47:25.762Z,1009.60
2022-10-09T10:48:18.354Z,1009.64
2022-10-09T10:49:21.336Z,1009.62
2022-10-09T10:50:18.310Z,1009.59
2022-10-09T10:51:25.415Z,1009.61
2022-10-09T10:52:18.522Z,1009.62
2022-10-09T10:53:19.551Z,1009.62
2022-10-09T10:54:33.768Z,1009.60
2022-10-09T10:55:19.552Z,1009.57
2022-10-09T10:56:19.511Z,1009.54
2022-10-09T10:57:18.492Z,1009.51
2022-10-09T10:58:39.263Z,1009.48
2022-10-09T10:59:18.304Z,1009.46
2022-10-09T11:00:25.294Z,1009.53
2022-10-09T11:01:18.463Z,1009.52
2022-10-09T11:02:19.215Z,1009.53
2022-10-09T11:03:18.522Z,1009.47
2022-10-09T11:04:18.422Z,1009.51
2022-10-09T11:05:18.421Z,1009.46
2022-10-09T11:06:18.390Z,1009.43
2022-10-09T11:07:18.391Z,1009.37
2022-10-09T11:08:18.366Z,1009.39
2022-10-09T11:09:18.136Z,1009.36
2022-10-09T11:10:25.354Z,1009.31
2022-10-09T11:11:25.482Z,1009.32
2022-10-09T11:12:30.062Z,1009.28
2022-10-09T11:13:19.071Z,1009.31
2022-10-09T11:14:20.338Z,1009.36
2022-10-09T11:15:18.329Z,1009.34
2022-10-09T11:16:21.123Z,1009.31
2022-10-09T11:17:21.280Z,1009.30
2022-10-09T11:18:18.042Z,1009.23
2022-10-09T11:19:18.005Z,1009.26
2022-10-09T11:20:19.035Z,1009.26
2022-10-09T11:21:18.015Z,1009.20
2022-10-09T11:22:21.237Z,1009.21
2022-10-09T11:23:18.976Z,1009.18
2022-10-09T11:24:18.191Z,1009.21
2022-10-09T11:25:18.241Z,1009.15
2022-10-09T11:26:17.969Z,1009.20
2022-10-09T11:27:18.190Z,1009.18
2022-10-09T11:28:18.203Z,1009.16
2022-10-09T11:29:21.184Z,1009.16
2022-10-09T11:30:33.158Z,1009.13
2022-10-09T11:31:17.916Z,1009.14
2022-10-09T11:32:19.138Z,1009.07
2022-10-09T11:33:18.079Z,1009.06
2022-10-09T11:34:17.862Z,1009.03
2022-10-09T11:35:24.964Z,1009.08
2022-10-09T11:36:18.089Z,1009.06
2022-10-09T11:37:17.858Z,1009.02
2022-10-09T11:38:33.357Z,1009.04
2022-10-09T11:39:17.837Z,1008.95
2022-10-09T11:40:17.789Z,1008.98
2022-10-09T11:41:17.779Z,1008.97
2022-10-09T11:42:17.803Z,1008.89
2022-10-09T11:43:18.778Z,1008.93
2022-10-09T11:44:17.750Z,1008.95
2022-10-09T11:45:17.738Z,1008.85
2022-10-09T11:46:18.109Z,1008.87
2022-10-09T11:47:17.980Z,1008.88
2022-10-09T11:48:17.957Z,1008.82
2022-10-09T11:49:17.929Z,1008.79
2022-10-09T11:50:17.932Z,1008.79
2022-10-09T11:51:20.706Z,1008.77
2022-10-09T11:52:17.962Z,1008.67
2022-10-09T11:53:17.646Z,1008.71
2022-10-09T11:54:17.668Z,1008.69
2022-10-09T11:55:17.872Z,1008.59
2022-10-09T11:56:18.894Z,1008.57
2022-10-09T11:57:17.860Z,1008.59
2022-10-09T11:58:17.606Z,1008.53
2022-10-09T11:59:17.885Z,1008.57
2022-10-09T12:00:17.840Z,1008.56
2022-10-09T12:01:17.625Z,1008.57
2022-10-09T12:02:18.623Z,1008.56
2022-10-09T12:03:18.615Z,1008.53
2022-10-09T12:04:23.875Z,1008.50
2022-10-09T12:05:18.766Z,1008.55
2022-10-09T12:06:17.540Z,1008.52